sensor_id;sensor_type;location;lat;lon;timestamp;P1;durP1;ratioP1;P2;durP2;ratioP2
14994;SDS011;7593;49.006;8.372;2023-07-13T00:00:08;2.10;;;1.65;;
14994;SDS011;7593;49.006;8.372;2023-07-13T00:02:35;3.42;;;1.90;;
14994;SDS011;7593;49.006;8.372;2023-07-13T00:05:04;3.40;;;1.98;;
14994;SDS011;7593;49.006;8.372;2023-07-13T00:07:31;2.85;;;1.70;;
14994;SDS011;7593;49.006;8.372;2023-07-13T00:09:58;3.33;;;2.00;;
14994;SDS011;7593;49.006;8.372;2023-07-13T00:12:26;5.88;;;2.30;;
14994;SDS011;7593;49.006;8.372;2023-07-13T00:14:55;2.47;;;2.00;;
14994;SDS011;7593;49.006;8.372;2023-07-13T00:17:23;4.10;;;2.13;;
14994;SDS011;7593;49.006;8.372;2023-07-13T00:19:50;2.20;;;2.00;;
14994;SDS011;7593;49.006;8.372;2023-07-13T00:22:18;1.92;;;1.73;;
14994;SDS011;7593;49.006;8.372;2023-07-13T00:24:45;3.22;;;1.90;;
14994;SDS011;7593;49.006;8.372;2023-07-13T00:27:11;3.30;;;1.77;;
14994;SDS011;7593;49.006;8.372;2023-07-13T00:29:39;6.28;;;1.90;;
14994;SDS011;7593;49.006;8.372;2023-07-13T00:32:06;3.28;;;1.98;;
14994;SDS011;7593;49.006;8.372;2023-07-13T00:34:34;3.85;;;1.90;;
14994;SDS011;7593;49.006;8.372;2023-07-13T00:37:01;4.20;;;1.95;;
14994;SDS011;7593;49.006;8.372;2023-07-13T00:39:29;2.92;;;1.48;;
14994;SDS011;7593;49.006;8.372;2023-07-13T00:41:56;4.18;;;1.60;;
14994;SDS011;7593;49.006;8.372;2023-07-13T00:44:22;6.65;;;1.70;;
14994;SDS011;7593;49.006;8.372;2023-07-13T00:46:49;3.13;;;1.63;;
14994;SDS011;7593;49.006;8.372;2023-07-13T00:49:17;5.30;;;1.50;;
14994;SDS011;7593;49.006;8.372;2023-07-13T00:51:47;7.07;;;1.58;;
14994;SDS011;7593;49.006;8.372;2023-07-13T00:54:18;4.50;;;1.75;;
14994;SDS011;7593;49.006;8.372;2023-07-13T00:56:48;5.50;;;1.73;;
14994;SDS011;7593;49.006;8.372;2023-07-13T00:59:17;5.80;;;1.88;;
14994;SDS011;7593;49.006;8.372;2023-07-13T01:01:46;6.97;;;1.77;;
14994;SDS011;7593;49.006;8.372;2023-07-13T01:04:13;4.38;;;1.90;;
14994;SDS011;7593;49.006;8.372;2023-07-13T01:06:40;5.53;;;1.70;;
14994;SDS011;7593;49.006;8.372;2023-07-13T01:09:09;4.65;;;1.98;;
14994;SDS011;7593;49.006;8.372;2023-07-13T01:11:37;2.75;;;1.70;;
14994;SDS011;7593;49.006;8.372;2023-07-13T01:14:05;2.17;;;1.70;;
14994;SDS011;7593;49.006;8.372;2023-07-13T01:16:33;3.92;;;1.60;;
14994;SDS011;7593;49.006;8.372;2023-07-13T01:19:01;3.45;;;1.70;;
14994;SDS011;7593;49.006;8.372;2023-07-13T01:21:34;2.15;;;1.52;;
14994;SDS011;7593;49.006;8.372;2023-07-13T01:24:03;6.80;;;2.03;;
14994;SDS011;7593;49.006;8.372;2023-07-13T01:26:30;3.15;;;1.70;;
14994;SDS011;7593;49.006;8.372;2023-07-13T01:28:56;5.30;;;1.70;;
14994;SDS011;7593;49.006;8.372;2023-07-13T01:31:23;4.47;;;1.85;;
14994;SDS011;7593;49.006;8.372;2023-07-13T01:33:50;4.13;;;1.83;;
14994;SDS011;7593;49.006;8.372;2023-07-13T01:36:17;4.97;;;1.88;;
14994;SDS011;7593;49.006;8.372;2023-07-13T01:38:47;2.25;;;1.50;;
14994;SDS011;7593;49.006;8.372;2023-07-13T01:41:14;3.53;;;1.88;;
14994;SDS011;7593;49.006;8.372;2023-07-13T01:43:41;2.53;;;1.70;;
14994;SDS011;7593;49.006;8.372;2023-07-13T01:46:08;3.83;;;1.73;;
14994;SDS011;7593;49.006;8.372;2023-07-13T01:48:34;4.40;;;2.10;;
14994;SDS011;7593;49.006;8.372;2023-07-13T01:51:01;3.17;;;1.70;;
14994;SDS011;7593;49.006;8.372;2023-07-13T01:53:28;2.88;;;1.60;;
14994;SDS011;7593;49.006;8.372;2023-07-13T01:55:56;3.70;;;1.80;;
14994;SDS011;7593;49.006;8.372;2023-07-13T01:58:23;2.25;;;1.67;;
14994;SDS011;7593;49.006;8.372;2023-07-13T02:00:50;5.20;;;2.03;;
14994;SDS011;7593;49.006;8.372;2023-07-13T02:03:18;3.65;;;1.70;;
14994;SDS011;7593;49.006;8.372;2023-07-13T02:05:45;3.88;;;1.65;;
14994;SDS011;7593;49.006;8.372;2023-07-13T02:08:11;4.68;;;1.70;;
14994;SDS011;7593;49.006;8.372;2023-07-13T02:10:38;5.28;;;1.92;;
14994;SDS011;7593;49.006;8.372;2023-07-13T02:13:06;5.72;;;1.90;;
14994;SDS011;7593;49.006;8.372;2023-07-13T02:15:34;2.92;;;1.83;;
14994;SDS011;7593;49.006;8.372;2023-07-13T02:18:04;4.43;;;1.50;;
14994;SDS011;7593;49.006;8.372;2023-07-13T02:20:30;3.17;;;1.70;;
14994;SDS011;7593;49.006;8.372;2023-07-13T02:22:57;5.25;;;2.20;;
14994;SDS011;7593;49.006;8.372;2023-07-13T02:25:24;5.28;;;2.00;;
14994;SDS011;7593;49.006;8.372;2023-07-13T02:27:51;4.05;;;1.70;;
14994;SDS011;7593;49.006;8.372;2023-07-13T02:30:20;4.05;;;1.67;;
14994;SDS011;7593;49.006;8.372;2023-07-13T02:32:49;6.15;;;2.00;;
14994;SDS011;7593;49.006;8.372;2023-07-13T02:35:16;4.38;;;1.98;;
14994;SDS011;7593;49.006;8.372;2023-07-13T02:37:43;3.13;;;1.58;;
14994;SDS011;7593;49.006;8.372;2023-07-13T02:40:10;2.85;;;1.92;;
14994;SDS011;7593;49.006;8.372;2023-07-13T02:42:37;4.70;;;2.00;;
14994;SDS011;7593;49.006;8.372;2023-07-13T02:45:04;6.65;;;1.77;;
14994;SDS011;7593;49.006;8.372;2023-07-13T02:47:33;3.80;;;1.83;;
14994;SDS011;7593;49.006;8.372;2023-07-13T02:50:00;7.95;;;2.00;;
14994;SDS011;7593;49.006;8.372;2023-07-13T02:52:27;2.83;;;1.90;;
14994;SDS011;7593;49.006;8.372;2023-07-13T02:54:53;3.42;;;1.80;;
14994;SDS011;7593;49.006;8.372;2023-07-13T02:57:20;4.55;;;1.98;;
14994;SDS011;7593;49.006;8.372;2023-07-13T02:59:47;4.30;;;1.90;;
14994;SDS011;7593;49.006;8.372;2023-07-13T03:02:14;5.30;;;1.88;;
14994;SDS011;7593;49.006;8.372;2023-07-13T03:04:43;3.33;;;1.90;;
14994;SDS011;7593;49.006;8.372;2023-07-13T03:07:10;6.25;;;2.00;;
14994;SDS011;7593;49.006;8.372;2023-07-13T03:09:36;5.88;;;2.10;;
14994;SDS011;7593;49.006;8.372;2023-07-13T03:12:03;5.30;;;2.22;;
14994;SDS011;7593;49.006;8.372;2023-07-13T03:14:31;4.60;;;2.10;;
14994;SDS011;7593;49.006;8.372;2023-07-13T03:16:57;3.03;;;1.80;;
14994;SDS011;7593;49.006;8.372;2023-07-13T03:19:24;2.80;;;1.90;;
14994;SDS011;7593;49.006;8.372;2023-07-13T03:21:52;3.97;;;2.10;;
14994;SDS011;7593;49.006;8.372;2023-07-13T03:24:19;3.15;;;1.90;;
14994;SDS011;7593;49.006;8.372;2023-07-13T03:26:48;4.00;;;1.80;;
14994;SDS011;7593;49.006;8.372;2023-07-13T03:29:15;4.57;;;1.92;;
14994;SDS011;7593;49.006;8.372;2023-07-13T03:31:42;2.60;;;1.90;;
14994;SDS011;7593;49.006;8.372;2023-07-13T03:34:08;4.75;;;1.85;;
14994;SDS011;7593;49.006;8.372;2023-07-13T03:36:35;3.00;;;1.70;;
14994;SDS011;7593;49.006;8.372;2023-07-13T03:39:04;3.20;;;1.90;;
14994;SDS011;7593;49.006;8.372;2023-07-13T03:41:33;4.57;;;2.10;;
14994;SDS011;7593;49.006;8.372;2023-07-13T03:44:00;4.75;;;2.22;;
14994;SDS011;7593;49.006;8.372;2023-07-13T03:46:27;4.03;;;1.80;;
14994;SDS011;7593;49.006;8.372;2023-07-13T03:48:54;5.82;;;2.10;;
14994;SDS011;7593;49.006;8.372;2023-07-13T03:51:21;6.35;;;2.13;;
14994;SDS011;7593;49.006;8.372;2023-07-13T03:53:48;7.53;;;2.22;;
14994;SDS011;7593;49.006;8.372;2023-07-13T03:56:16;3.17;;;1.92;;
14994;SDS011;7593;49.006;8.372;2023-07-13T03:58:44;4.53;;;2.50;;
14994;SDS011;7593;49.006;8.372;2023-07-13T04:01:12;3.10;;;2.30;;
14994;SDS011;7593;49.006;8.372;2023-07-13T04:03:41;4.22;;;2.38;;
14994;SDS011;7593;49.006;8.372;2023-07-13T04:06:18;7.75;;;2.50;;
14994;SDS011;7593;49.006;8.372;2023-07-13T04:08:49;4.72;;;2.30;;
14994;SDS011;7593;49.006;8.372;2023-07-13T04:11:18;6.85;;;2.28;;
14994;SDS011;7593;49.006;8.372;2023-07-13T04:13:46;3.17;;;2.17;;
14994;SDS011;7593;49.006;8.372;2023-07-13T04:16:14;4.35;;;2.20;;
14994;SDS011;7593;49.006;8.372;2023-07-13T04:18:41;6.57;;;1.98;;
14994;SDS011;7593;49.006;8.372;2023-07-13T04:21:08;6.60;;;2.60;;
14994;SDS011;7593;49.006;8.372;2023-07-13T04:23:35;5.45;;;2.38;;
14994;SDS011;7593;49.006;8.372;2023-07-13T04:26:02;3.47;;;2.35;;
14994;SDS011;7593;49.006;8.372;2023-07-13T04:28:31;3.28;;;1.83;;
14994;SDS011;7593;49.006;8.372;2023-07-13T04:30:58;4.43;;;2.25;;
14994;SDS011;7593;49.006;8.372;2023-07-13T04:33:25;4.85;;;1.92;;
14994;SDS011;7593;49.006;8.372;2023-07-13T04:35:53;4.68;;;1.90;;
14994;SDS011;7593;49.006;8.372;2023-07-13T04:38:21;3.92;;;2.03;;
14994;SDS011;7593;49.006;8.372;2023-07-13T04:40:49;4.43;;;1.90;;
14994;SDS011;7593;49.006;8.372;2023-07-13T04:43:17;3.58;;;2.13;;
14994;SDS011;7593;49.006;8.372;2023-07-13T04:45:45;4.97;;;2.33;;
14994;SDS011;7593;49.006;8.372;2023-07-13T04:48:12;4.78;;;1.90;;
14994;SDS011;7593;49.006;8.372;2023-07-13T04:50:39;3.65;;;2.50;;
14994;SDS011;7593;49.006;8.372;2023-07-13T04:53:06;4.38;;;1.95;;
14994;SDS011;7593;49.006;8.372;2023-07-13T04:55:32;2.67;;;2.20;;
14994;SDS011;7593;49.006;8.372;2023-07-13T04:57:59;4.10;;;2.20;;
14994;SDS011;7593;49.006;8.372;2023-07-13T05:00:27;5.57;;;2.28;;
14994;SDS011;7593;49.006;8.372;2023-07-13T05:02:56;3.95;;;2.22;;
14994;SDS011;7593;49.006;8.372;2023-07-13T05:05:24;2.70;;;2.10;;
14994;SDS011;7593;49.006;8.372;2023-07-13T05:07:53;6.72;;;2.10;;
14994;SDS011;7593;49.006;8.372;2023-07-13T05:10:20;6.25;;;2.10;;
14994;SDS011;7593;49.006;8.372;2023-07-13T05:12:47;4.25;;;2.00;;
14994;SDS011;7593;49.006;8.372;2023-07-13T05:15:14;4.43;;;2.10;;
14994;SDS011;7593;49.006;8.372;2023-07-13T05:17:41;3.97;;;2.10;;
14994;SDS011;7593;49.006;8.372;2023-07-13T05:20:09;2.72;;;1.90;;
14994;SDS011;7593;49.006;8.372;2023-07-13T05:22:36;7.40;;;2.53;;
14994;SDS011;7593;49.006;8.372;2023-07-13T05:25:04;2.55;;;2.03;;
14994;SDS011;7593;49.006;8.372;2023-07-13T05:27:31;5.38;;;2.28;;
14994;SDS011;7593;49.006;8.372;2023-07-13T05:29:58;8.32;;;2.45;;
14994;SDS011;7593;49.006;8.372;2023-07-13T05:32:25;6.85;;;2.42;;
14994;SDS011;7593;49.006;8.372;2023-07-13T05:34:52;5.40;;;2.05;;
14994;SDS011;7593;49.006;8.372;2023-07-13T05:37:20;5.10;;;2.33;;
14994;SDS011;7593;49.006;8.372;2023-07-13T05:39:47;6.25;;;2.17;;
14994;SDS011;7593;49.006;8.372;2023-07-13T05:42:14;6.63;;;2.78;;
14994;SDS011;7593;49.006;8.372;2023-07-13T05:44:40;3.05;;;2.00;;
14994;SDS011;7593;49.006;8.372;2023-07-13T05:47:07;5.05;;;2.05;;
14994;SDS011;7593;49.006;8.372;2023-07-13T05:49:34;5.13;;;2.33;;
14994;SDS011;7593;49.006;8.372;2023-07-13T05:52:01;6.47;;;2.17;;
14994;SDS011;7593;49.006;8.372;2023-07-13T05:54:29;8.65;;;2.47;;
14994;SDS011;7593;49.006;8.372;2023-07-13T05:56:57;7.47;;;2.17;;
14994;SDS011;7593;49.006;8.372;2023-07-13T05:59:24;8.13;;;2.28;;
14994;SDS011;7593;49.006;8.372;2023-07-13T06:01:51;8.82;;;2.20;;
14994;SDS011;7593;49.006;8.372;2023-07-13T06:04:18;4.63;;;2.05;;
14994;SDS011;7593;49.006;8.372;2023-07-13T06:06:45;6.47;;;2.35;;
14994;SDS011;7593;49.006;8.372;2023-07-13T06:09:12;5.00;;;2.15;;
14994;SDS011;7593;49.006;8.372;2023-07-13T06:11:41;5.65;;;2.03;;
14994;SDS011;7593;49.006;8.372;2023-07-13T06:14:08;6.30;;;2.47;;
14994;SDS011;7593;49.006;8.372;2023-07-13T06:16:35;4.18;;;2.22;;
14994;SDS011;7593;49.006;8.372;2023-07-13T06:19:02;3.72;;;2.05;;
14994;SDS011;7593;49.006;8.372;2023-07-13T06:21:29;3.50;;;2.10;;
14994;SDS011;7593;49.006;8.372;2023-07-13T06:23:55;5.07;;;2.55;;
14994;SDS011;7593;49.006;8.372;2023-07-13T06:26:22;6.15;;;2.13;;
14994;SDS011;7593;49.006;8.372;2023-07-13T06:28:50;8.40;;;2.15;;
14994;SDS011;7593;49.006;8.372;2023-07-13T06:31:17;5.70;;;2.50;;
14994;SDS011;7593;49.006;8.372;2023-07-13T06:33:44;4.53;;;2.15;;
14994;SDS011;7593;49.006;8.372;2023-07-13T06:36:11;8.18;;;2.38;;
14994;SDS011;7593;49.006;8.372;2023-07-13T06:38:38;3.58;;;2.10;;
14994;SDS011;7593;49.006;8.372;2023-07-13T06:41:05;3.35;;;1.85;;
14994;SDS011;7593;49.006;8.372;2023-07-13T06:43:33;8.27;;;1.88;;
14994;SDS011;7593;49.006;8.372;2023-07-13T06:46:01;5.30;;;1.92;;
14994;SDS011;7593;49.006;8.372;2023-07-13T06:48:28;4.75;;;1.88;;
14994;SDS011;7593;49.006;8.372;2023-07-13T06:50:54;3.72;;;1.80;;
14994;SDS011;7593;49.006;8.372;2023-07-13T06:53:21;4.90;;;2.10;;
14994;SDS011;7593;49.006;8.372;2023-07-13T06:55:48;4.57;;;2.10;;
14994;SDS011;7593;49.006;8.372;2023-07-13T06:58:17;4.85;;;1.95;;
14994;SDS011;7593;49.006;8.372;2023-07-13T07:00:44;4.60;;;1.80;;
14994;SDS011;7593;49.006;8.372;2023-07-13T07:03:15;7.60;;;1.90;;
14994;SDS011;7593;49.006;8.372;2023-07-13T07:05:41;5.78;;;1.90;;
14994;SDS011;7593;49.006;8.372;2023-07-13T07:08:08;6.07;;;1.83;;
14994;SDS011;7593;49.006;8.372;2023-07-13T07:10:35;7.93;;;2.17;;
14994;SDS011;7593;49.006;8.372;2023-07-13T07:13:02;6.80;;;1.95;;
14994;SDS011;7593;49.006;8.372;2023-07-13T07:15:30;3.38;;;1.75;;
14994;SDS011;7593;49.006;8.372;2023-07-13T07:17:56;3.63;;;1.80;;
14994;SDS011;7593;49.006;8.372;2023-07-13T07:20:24;3.78;;;1.70;;
14994;SDS011;7593;49.006;8.372;2023-07-13T07:22:51;6.80;;;1.65;;
14994;SDS011;7593;49.006;8.372;2023-07-13T07:25:19;4.30;;;2.05;;
14994;SDS011;7593;49.006;8.372;2023-07-13T07:27:46;3.53;;;1.77;;
14994;SDS011;7593;49.006;8.372;2023-07-13T07:30:13;3.92;;;1.80;;
14994;SDS011;7593;49.006;8.372;2023-07-13T07:32:40;5.47;;;1.70;;
14994;SDS011;7593;49.006;8.372;2023-07-13T07:35:08;5.07;;;1.67;;
14994;SDS011;7593;49.006;8.372;2023-07-13T07:37:41;3.78;;;1.58;;
14994;SDS011;7593;49.006;8.372;2023-07-13T07:40:08;4.20;;;1.70;;
14994;SDS011;7593;49.006;8.372;2023-07-13T07:42:35;5.20;;;1.80;;
14994;SDS011;7593;49.006;8.372;2023-07-13T07:45:02;6.43;;;1.85;;
14994;SDS011;7593;49.006;8.372;2023-07-13T07:47:29;3.53;;;1.60;;
14994;SDS011;7593;49.006;8.372;2023-07-13T07:49:56;3.17;;;1.88;;
14994;SDS011;7593;49.006;8.372;2023-07-13T07:52:23;5.15;;;1.98;;
14994;SDS011;7593;49.006;8.372;2023-07-13T07:54:51;3.05;;;2.00;;
14994;SDS011;7593;49.006;8.372;2023-07-13T07:57:18;6.43;;;2.17;;
14994;SDS011;7593;49.006;8.372;2023-07-13T07:59:45;3.50;;;2.20;;
14994;SDS011;7593;49.006;8.372;2023-07-13T08:02:13;4.95;;;1.90;;
14994;SDS011;7593;49.006;8.372;2023-07-13T08:04:40;4.45;;;2.00;;
14994;SDS011;7593;49.006;8.372;2023-07-13T08:07:07;4.90;;;1.95;;
14994;SDS011;7593;49.006;8.372;2023-07-13T08:09:34;4.15;;;1.80;;
14994;SDS011;7593;49.006;8.372;2023-07-13T08:12:02;4.82;;;2.00;;
14994;SDS011;7593;49.006;8.372;2023-07-13T08:14:32;3.40;;;1.80;;
14994;SDS011;7593;49.006;8.372;2023-07-13T08:17:03;4.53;;;1.90;;
14994;SDS011;7593;49.006;8.372;2023-07-13T08:19:30;6.63;;;2.05;;
14994;SDS011;7593;49.006;8.372;2023-07-13T08:21:57;2.83;;;1.70;;
14994;SDS011;7593;49.006;8.372;2023-07-13T08:24:24;3.22;;;1.70;;
14994;SDS011;7593;49.006;8.372;2023-07-13T08:26:51;5.07;;;2.10;;
14994;SDS011;7593;49.006;8.372;2023-07-13T08:29:20;4.82;;;1.80;;
14994;SDS011;7593;49.006;8.372;2023-07-13T08:31:46;4.38;;;1.77;;
14994;SDS011;7593;49.006;8.372;2023-07-13T08:34:13;3.70;;;1.98;;
14994;SDS011;7593;49.006;8.372;2023-07-13T08:36:40;2.90;;;1.80;;
14994;SDS011;7593;49.006;8.372;2023-07-13T08:39:07;4.78;;;2.05;;
14994;SDS011;7593;49.006;8.372;2023-07-13T08:41:34;4.15;;;1.92;;
14994;SDS011;7593;49.006;8.372;2023-07-13T08:44:02;4.10;;;1.70;;
14994;SDS011;7593;49.006;8.372;2023-07-13T08:46:36;3.40;;;1.92;;
14994;SDS011;7593;49.006;8.372;2023-07-13T08:49:09;2.38;;;1.70;;
14994;SDS011;7593;49.006;8.372;2023-07-13T08:51:40;3.25;;;1.80;;
14994;SDS011;7593;49.006;8.372;2023-07-13T08:56:56;3.88;;;1.95;;
14994;SDS011;7593;49.006;8.372;2023-07-13T08:59:27;5.38;;;1.83;;
14994;SDS011;7593;49.006;8.372;2023-07-13T09:02:13;4.72;;;1.75;;
14994;SDS011;7593;49.006;8.372;2023-07-13T09:04:53;3.15;;;1.60;;
14994;SDS011;7593;49.006;8.372;2023-07-13T09:07:40;2.65;;;1.67;;
14994;SDS011;7593;49.006;8.372;2023-07-13T09:10:23;4.80;;;1.80;;
14994;SDS011;7593;49.006;8.372;2023-07-13T09:12:57;3.72;;;1.65;;
14994;SDS011;7593;49.006;8.372;2023-07-13T09:15:39;5.75;;;2.10;;
14994;SDS011;7593;49.006;8.372;2023-07-13T09:18:11;2.20;;;1.67;;
14994;SDS011;7593;49.006;8.372;2023-07-13T09:20:44;3.83;;;1.80;;
14994;SDS011;7593;49.006;8.372;2023-07-13T09:23:16;3.83;;;1.60;;
14994;SDS011;7593;49.006;8.372;2023-07-13T09:25:45;3.92;;;1.55;;
14994;SDS011;7593;49.006;8.372;2023-07-13T09:28:17;3.63;;;1.80;;
14994;SDS011;7593;49.006;8.372;2023-07-13T09:30:50;2.97;;;1.65;;
14994;SDS011;7593;49.006;8.372;2023-07-13T09:33:21;4.35;;;1.80;;
14994;SDS011;7593;49.006;8.372;2023-07-13T09:35:49;2.25;;;1.52;;
14994;SDS011;7593;49.006;8.372;2023-07-13T09:38:16;2.65;;;1.73;;
14994;SDS011;7593;49.006;8.372;2023-07-13T09:40:46;7.10;;;1.75;;
14994;SDS011;7593;49.006;8.372;2023-07-13T09:43:24;4.47;;;1.60;;
14994;SDS011;7593;49.006;8.372;2023-07-13T09:45:51;4.13;;;1.80;;
14994;SDS011;7593;49.006;8.372;2023-07-13T09:48:18;2.83;;;1.60;;
14994;SDS011;7593;49.006;8.372;2023-07-13T09:50:46;5.18;;;1.85;;
14994;SDS011;7593;49.006;8.372;2023-07-13T09:53:14;3.83;;;1.60;;
14994;SDS011;7593;49.006;8.372;2023-07-13T09:55:43;1.73;;;1.40;;
14994;SDS011;7593;49.006;8.372;2023-07-13T09:58:12;4.18;;;1.58;;
14994;SDS011;7593;49.006;8.372;2023-07-13T10:00:41;3.17;;;1.80;;
14994;SDS011;7593;49.006;8.372;2023-07-13T10:03:16;1.83;;;1.48;;
14994;SDS011;7593;49.006;8.372;2023-07-13T10:05:48;2.80;;;1.88;;
14994;SDS011;7593;49.006;8.372;2023-07-13T10:08:17;3.40;;;1.77;;
14994;SDS011;7593;49.006;8.372;2023-07-13T10:10:45;3.17;;;1.60;;
14994;SDS011;7593;49.006;8.372;2023-07-13T10:13:32;3.17;;;1.70;;
14994;SDS011;7593;49.006;8.372;2023-07-13T10:16:02;2.97;;;1.60;;
14994;SDS011;7593;49.006;8.372;2023-07-13T10:18:31;1.98;;;1.40;;
14994;SDS011;7593;49.006;8.372;2023-07-13T10:21:11;2.30;;;1.50;;
14994;SDS011;7593;49.006;8.372;2023-07-13T10:23:39;3.25;;;1.50;;
14994;SDS011;7593;49.006;8.372;2023-07-13T10:26:09;3.72;;;1.70;;
14994;SDS011;7593;49.006;8.372;2023-07-13T10:28:42;6.70;;;1.80;;
14994;SDS011;7593;49.006;8.372;2023-07-13T10:31:13;2.78;;;1.60;;
14994;SDS011;7593;49.006;8.372;2023-07-13T10:33:42;3.28;;;1.80;;
14994;SDS011;7593;49.006;8.372;2023-07-13T10:36:15;5.60;;;1.70;;
14994;SDS011;7593;49.006;8.372;2023-07-13T10:38:47;3.45;;;1.70;;
14994;SDS011;7593;49.006;8.372;2023-07-13T10:41:17;2.13;;;1.67;;
14994;SDS011;7593;49.006;8.372;2023-07-13T10:43:47;2.95;;;1.80;;
14994;SDS011;7593;49.006;8.372;2023-07-13T10:46:17;2.75;;;2.00;;
14994;SDS011;7593;49.006;8.372;2023-07-13T10:48:46;5.88;;;1.70;;
14994;SDS011;7593;49.006;8.372;2023-07-13T10:51:17;3.92;;;1.90;;
14994;SDS011;7593;49.006;8.372;2023-07-13T10:53:46;4.15;;;1.70;;
14994;SDS011;7593;49.006;8.372;2023-07-13T10:56:20;3.22;;;1.70;;
14994;SDS011;7593;49.006;8.372;2023-07-13T10:59:01;6.45;;;1.70;;
14994;SDS011;7593;49.006;8.372;2023-07-13T11:01:39;3.72;;;1.60;;
14994;SDS011;7593;49.006;8.372;2023-07-13T11:04:08;2.10;;;1.67;;
14994;SDS011;7593;49.006;8.372;2023-07-13T11:06:41;2.72;;;1.70;;
14994;SDS011;7593;49.006;8.372;2023-07-13T11:09:25;4.60;;;1.88;;
14994;SDS011;7593;49.006;8.372;2023-07-13T11:11:58;9.05;;;1.98;;
14994;SDS011;7593;49.006;8.372;2023-07-13T11:14:27;4.63;;;1.70;;
14994;SDS011;7593;49.006;8.372;2023-07-13T11:16:56;5.25;;;1.70;;
14994;SDS011;7593;49.006;8.372;2023-07-13T11:19:38;4.45;;;1.50;;
14994;SDS011;7593;49.006;8.372;2023-07-13T11:22:12;2.97;;;1.60;;
14994;SDS011;7593;49.006;8.372;2023-07-13T11:24:52;3.05;;;1.52;;
14994;SDS011;7593;49.006;8.372;2023-07-13T11:30:18;4.18;;;1.95;;
14994;SDS011;7593;49.006;8.372;2023-07-13T11:32:50;3.58;;;2.00;;
14994;SDS011;7593;49.006;8.372;2023-07-13T11:35:27;4.30;;;2.10;;
14994;SDS011;7593;49.006;8.372;2023-07-13T11:37:56;6.95;;;2.13;;
14994;SDS011;7593;49.006;8.372;2023-07-13T11:40:23;2.67;;;1.63;;
14994;SDS011;7593;49.006;8.372;2023-07-13T11:42:57;3.10;;;2.00;;
14994;SDS011;7593;49.006;8.372;2023-07-13T11:45:25;5.38;;;2.10;;
14994;SDS011;7593;49.006;8.372;2023-07-13T11:47:53;3.17;;;1.80;;
14994;SDS011;7593;49.006;8.372;2023-07-13T11:50:22;4.15;;;1.92;;
14994;SDS011;7593;49.006;8.372;2023-07-13T11:52:50;3.28;;;1.63;;
14994;SDS011;7593;49.006;8.372;2023-07-13T11:55:21;7.18;;;2.08;;
14994;SDS011;7593;49.006;8.372;2023-07-13T11:57:50;3.28;;;2.00;;
14994;SDS011;7593;49.006;8.372;2023-07-13T12:00:23;12.18;;;2.20;;
14994;SDS011;7593;49.006;8.372;2023-07-13T12:02:57;3.92;;;1.90;;
14994;SDS011;7593;49.006;8.372;2023-07-13T12:05:27;4.28;;;1.83;;
14994;SDS011;7593;49.006;8.372;2023-07-13T12:07:56;6.13;;;1.80;;
14994;SDS011;7593;49.006;8.372;2023-07-13T12:10:26;1.45;;;1.30;;
14994;SDS011;7593;49.006;8.372;2023-07-13T12:12:55;2.85;;;1.52;;
14994;SDS011;7593;49.006;8.372;2023-07-13T12:15:23;4.47;;;1.70;;
14994;SDS011;7593;49.006;8.372;2023-07-13T12:18:09;3.45;;;1.60;;
14994;SDS011;7593;49.006;8.372;2023-07-13T12:20:39;2.70;;;1.42;;
14994;SDS011;7593;49.006;8.372;2023-07-13T12:23:10;3.40;;;1.50;;
14994;SDS011;7593;49.006;8.372;2023-07-13T12:25:48;2.20;;;1.55;;
14994;SDS011;7593;49.006;8.372;2023-07-13T12:28:21;3.10;;;1.60;;
14994;SDS011;7593;49.006;8.372;2023-07-13T12:30:57;2.72;;;1.42;;
14994;SDS011;7593;49.006;8.372;2023-07-13T12:33:27;3.33;;;1.50;;
14994;SDS011;7593;49.006;8.372;2023-07-13T12:35:54;3.65;;;1.75;;
14994;SDS011;7593;49.006;8.372;2023-07-13T12:38:23;3.00;;;1.70;;
14994;SDS011;7593;49.006;8.372;2023-07-13T12:40:52;4.03;;;1.65;;
14994;SDS011;7593;49.006;8.372;2023-07-13T12:43:19;4.63;;;1.70;;
14994;SDS011;7593;49.006;8.372;2023-07-13T12:45:58;3.22;;;1.48;;
14994;SDS011;7593;49.006;8.372;2023-07-13T12:48:27;2.13;;;1.38;;
14994;SDS011;7593;49.006;8.372;2023-07-13T12:51:00;3.97;;;1.90;;
14994;SDS011;7593;49.006;8.372;2023-07-13T12:53:28;3.55;;;1.63;;
14994;SDS011;7593;49.006;8.372;2023-07-13T12:55:59;6.93;;;1.80;;
14994;SDS011;7593;49.006;8.372;2023-07-13T12:58:36;2.55;;;1.40;;
14994;SDS011;7593;49.006;8.372;2023-07-13T13:01:04;3.65;;;1.52;;
14994;SDS011;7593;49.006;8.372;2023-07-13T13:03:32;3.90;;;1.13;;
14994;SDS011;7593;49.006;8.372;2023-07-13T13:06:01;3.25;;;1.63;;
14994;SDS011;7593;49.006;8.372;2023-07-13T13:08:30;1.95;;;1.13;;
14994;SDS011;7593;49.006;8.372;2023-07-13T13:11:00;2.30;;;1.30;;
14994;SDS011;7593;49.006;8.372;2023-07-13T13:13:27;2.42;;;1.15;;
14994;SDS011;7593;49.006;8.372;2023-07-13T13:16:00;3.38;;;1.20;;
14994;SDS011;7593;49.006;8.372;2023-07-13T13:18:37;4.07;;;1.65;;
14994;SDS011;7593;49.006;8.372;2023-07-13T13:21:08;1.83;;;1.33;;
14994;SDS011;7593;49.006;8.372;2023-07-13T13:23:36;6.47;;;1.27;;
14994;SDS011;7593;49.006;8.372;2023-07-13T13:26:08;3.85;;;1.23;;
14994;SDS011;7593;49.006;8.372;2023-07-13T13:28:40;1.52;;;0.90;;
14994;SDS011;7593;49.006;8.372;2023-07-13T13:31:18;3.05;;;1.60;;
14994;SDS011;7593;49.006;8.372;2023-07-13T13:33:48;3.10;;;1.08;;
14994;SDS011;7593;49.006;8.372;2023-07-13T13:36:17;4.15;;;1.38;;
14994;SDS011;7593;49.006;8.372;2023-07-13T13:38:51;2.67;;;1.05;;
14994;SDS011;7593;49.006;8.372;2023-07-13T13:41:23;2.00;;;1.10;;
14994;SDS011;7593;49.006;8.372;2023-07-13T13:43:52;6.72;;;1.30;;
14994;SDS011;7593;49.006;8.372;2023-07-13T13:46:24;3.10;;;1.30;;
14994;SDS011;7593;49.006;8.372;2023-07-13T13:48:55;4.55;;;1.33;;
14994;SDS011;7593;49.006;8.372;2023-07-13T13:51:26;3.92;;;1.63;;
14994;SDS011;7593;49.006;8.372;2023-07-13T13:53:54;3.83;;;1.33;;
14994;SDS011;7593;49.006;8.372;2023-07-13T13:56:24;2.05;;;1.00;;
14994;SDS011;7593;49.006;8.372;2023-07-13T13:58:52;3.63;;;1.15;;
14994;SDS011;7593;49.006;8.372;2023-07-13T14:01:21;4.13;;;1.20;;
14994;SDS011;7593;49.006;8.372;2023-07-13T14:04:04;2.65;;;1.25;;
14994;SDS011;7593;49.006;8.372;2023-07-13T14:06:37;3.00;;;0.93;;
14994;SDS011;7593;49.006;8.372;2023-07-13T14:09:12;3.28;;;1.30;;
14994;SDS011;7593;49.006;8.372;2023-07-13T14:11:44;5.55;;;1.80;;
14994;SDS011;7593;49.006;8.372;2023-07-13T14:14:14;5.22;;;1.33;;
14994;SDS011;7593;49.006;8.372;2023-07-13T14:16:51;3.42;;;1.20;;
14994;SDS011;7593;49.006;8.372;2023-07-13T14:19:22;2.88;;;1.13;;
14994;SDS011;7593;49.006;8.372;2023-07-13T14:21:54;4.25;;;1.55;;
14994;SDS011;7593;49.006;8.372;2023-07-13T14:24:27;4.57;;;3.75;;
14994;SDS011;7593;49.006;8.372;2023-07-13T14:27:02;6.97;;;1.30;;
14994;SDS011;7593;49.006;8.372;2023-07-13T14:29:31;2.88;;;1.17;;
14994;SDS011;7593;49.006;8.372;2023-07-13T14:32:00;1.65;;;1.02;;
14994;SDS011;7593;49.006;8.372;2023-07-13T14:34:27;3.75;;;1.30;;
14994;SDS011;7593;49.006;8.372;2023-07-13T14:37:02;2.53;;;1.30;;
14994;SDS011;7593;49.006;8.372;2023-07-13T14:39:42;1.95;;;1.13;;
14994;SDS011;7593;49.006;8.372;2023-07-13T14:42:14;3.28;;;1.30;;
14994;SDS011;7593;49.006;8.372;2023-07-13T14:44:43;2.70;;;1.38;;
14994;SDS011;7593;49.006;8.372;2023-07-13T14:47:12;4.88;;;2.00;;
14994;SDS011;7593;49.006;8.372;2023-07-13T14:49:50;1.95;;;1.10;;
14994;SDS011;7593;49.006;8.372;2023-07-13T14:52:18;3.45;;;1.58;;
14994;SDS011;7593;49.006;8.372;2023-07-13T14:54:51;3.45;;;1.80;;
14994;SDS011;7593;49.006;8.372;2023-07-13T14:57:24;2.70;;;1.20;;
14994;SDS011;7593;49.006;8.372;2023-07-13T15:00:00;2.75;;;1.38;;
14994;SDS011;7593;49.006;8.372;2023-07-13T15:02:35;2.78;;;1.35;;
14994;SDS011;7593;49.006;8.372;2023-07-13T15:05:15;3.42;;;1.40;;
14994;SDS011;7593;49.006;8.372;2023-07-13T15:07:49;2.38;;;1.25;;
14994;SDS011;7593;49.006;8.372;2023-07-13T15:10:17;6.05;;;1.45;;
14994;SDS011;7593;49.006;8.372;2023-07-13T15:12:54;3.35;;;1.30;;
14994;SDS011;7593;49.006;8.372;2023-07-13T15:15:35;3.40;;;1.30;;
14994;SDS011;7593;49.006;8.372;2023-07-13T15:18:05;3.90;;;1.55;;